Time;durP1;ratioP1;P1;durP2;ratioP2;P2;SDS_P1;SDS_P2;PMS_P1;PMS_P2;Temp;Humidity;BMP_temperature;BMP_pressure;BME280_temperature;BME280_humidity;BME280_pressure;Samples;Min_cycle;Max_cycle;Signal;HPM_P1;HPM_P2
2022/12/29 00:01:26;;;;;;;12.57;9.63;;;9.60;99.90;;;;;;4977619;28;20074;-82
2022/12/29 00:03:52;;;;;;;12.52;10.02;;;9.60;99.90;;;;;;4977641;28;20527;-84
2022/12/29 00:06:18;;;;;;;10.52;8.52;;;9.70;99.90;;;;;;4951060;28;20092;-81
2022/12/29 00:08:43;;;;;;;12.93;10.07;;;9.60;99.90;;;;;;4972536;28;20041;-84
2022/12/29 00:11:12;;;;;;;10.23;9.23;;;9.60;99.90;;;;;;4986951;28;20472;-81
2022/12/29 00:16:22;;;;;;;12.55;10.70;;;9.70;99.90;;;;;;4980127;28;20217;-82
2022/12/29 00:18:48;;;;;;;15.35;11.55;;;9.70;99.90;;;;;;4977686;28;20079;-82
2022/12/29 00:35:08;;;;;;;11.77;9.65;;;9.80;99.90;;;;;;4966589;28;20141;-82
2022/12/29 00:45:48;;;;;;;12.20;9.60;;;9.80;99.90;;;;;;4979001;28;20057;-85
2022/12/29 00:48:14;;;;;;;11.85;9.40;;;9.80;99.90;;;;;;4996164;28;20042;-82
2022/12/29 00:50:39;;;;;;;12.65;8.80;;;9.80;99.90;;;;;;4969987;28;20046;-82
2022/12/29 00:53:05;;;;;;;11.88;8.57;;;9.80;99.90;;;;;;4959500;28;20051;-83
2022/12/29 00:55:31;;;;;;;10.88;8.70;;;9.80;99.90;;;;;;4959539;28;20043;-86
2022/12/29 00:57:57;;;;;;;10.95;8.50;;;9.80;99.90;;;;;;4958150;28;20053;-82
2022/12/29 01:00:22;;;;;;;10.05;7.45;;;9.80;99.90;;;;;;4979827;28;20050;-83
2022/12/29 01:02:48;;;;;;;11.38;8.52;;;9.80;99.90;;;;;;4978818;28;20057;-83
2022/12/29 01:05:14;;;;;;;10.75;8.15;;;9.80;99.90;;;;;;4976704;28;20057;-81
2022/12/29 01:07:39;;;;;;;10.18;7.72;;;9.80;99.90;;;;;;4944570;28;20050;-87
2022/12/29 01:10:11;;;;;;;9.23;7.07;;;9.80;99.90;;;;;;4976695;28;20042;-82
2022/12/29 01:12:40;;;;;;;8.38;7.03;;;9.80;99.90;;;;;;4945193;28;20567;-84
2022/12/29 01:15:08;;;;;;;10.98;7.30;;;9.80;99.90;;;;;;4981871;28;20034;-82
2022/12/29 01:17:34;;;;;;;9.75;7.95;;;9.80;99.90;;;;;;4960800;28;20053;-83
2022/12/29 01:19:59;;;;;;;9.23;7.82;;;9.80;99.90;;;;;;4984877;28;20636;-83
2022/12/29 01:22:25;;;;;;;11.85;7.20;;;9.80;99.90;;;;;;4957304;28;20073;-82
2022/12/29 01:24:51;;;;;;;10.13;7.03;;;9.80;99.90;;;;;;4966092;28;20050;-83
2022/12/29 01:27:16;;;;;;;7.82;6.63;;;9.80;99.90;;;;;;4988523;28;20108;-82
2022/12/29 01:29:42;;;;;;;10.65;7.30;;;9.80;99.90;;;;;;4975214;28;20057;-84
2022/12/29 01:32:08;;;;;;;8.27;7.30;;;9.70;99.90;;;;;;4946957;28;20069;-85
2022/12/29 01:34:33;;;;;;;9.43;6.20;;;9.70;99.90;;;;;;4976569;28;20116;-82
2022/12/29 01:36:59;;;;;;;9.75;6.35;;;9.70;99.90;;;;;;4989737;28;20038;-83
2022/12/29 01:39:24;;;;;;;7.18;6.10;;;9.70;99.90;;;;;;4958991;28;20062;-82
2022/12/29 01:41:50;;;;;;;9.05;6.40;;;9.70;99.90;;;;;;4959134;28;20046;-83
2022/12/29 01:44:47;;;;;;;6.30;5.35;;;9.80;99.90;;;;;;4970538;28;21651;-82
2022/12/29 01:47:18;;;;;;;7.65;5.63;;;9.80;99.90;;;;;;4972212;28;20567;-82
2022/12/29 01:49:44;;;;;;;5.70;4.93;;;9.70;99.90;;;;;;4969350;28;20045;-88
2022/12/29 01:52:10;;;;;;;7.25;5.15;;;9.80;99.90;;;;;;4956549;28;20412;-83
2022/12/29 01:54:47;;;;;;;6.55;5.15;;;9.90;99.90;;;;;;4985180;28;20496;-82
2022/12/29 01:57:36;;;;;;;4.60;3.90;;;9.90;99.90;;;;;;4989229;28;20038;-85
2022/12/29 02:00:09;;;;;;;5.95;4.72;;;9.90;99.90;;;;;;4979410;28;20046;-81
2022/12/29 02:02:35;;;;;;;6.20;4.40;;;9.80;99.90;;;;;;4978540;28;20042;-82
2022/12/29 02:05:13;;;;;;;6.38;4.70;;;9.80;99.90;;;;;;4970901;28;20553;-82
2022/12/29 02:07:40;;;;;;;5.40;4.70;;;9.90;99.90;;;;;;4975471;28;20050;-82
2022/12/29 02:10:06;;;;;;;8.75;4.88;;;9.90;99.90;;;;;;4974949;28;20046;-81
2022/12/29 02:12:32;;;;;;;4.97;4.30;;;9.90;99.90;;;;;;4955905;28;20081;-82
2022/12/29 02:15:00;;;;;;;5.55;4.97;;;9.90;99.90;;;;;;4988516;28;20050;-81
2022/12/29 02:17:43;;;;;;;6.35;4.93;;;9.90;99.90;;;;;;4966327;28;20050;-83
2022/12/29 02:20:27;;;;;;;4.60;4.00;;;9.90;99.90;;;;;;4997650;28;20054;-83
2022/12/29 02:23:13;;;;;;;6.07;4.15;;;9.90;99.90;;;;;;4975108;28;20055;-82
2022/12/29 02:25:51;;;;;;;9.38;4.38;;;9.90;99.90;;;;;;4975469;28;20046;-83
2022/12/29 02:28:26;;;;;;;6.53;4.18;;;9.90;99.90;;;;;;4962549;28;20407;-82
2022/12/29 02:31:03;;;;;;;6.53;4.43;;;10.00;99.90;;;;;;4974721;28;20060;-82
2022/12/29 02:33:40;;;;;;;5.18;3.90;;;9.90;99.90;;;;;;4973378;28;20407;-83
2022/12/29 02:36:22;;;;;;;5.97;3.63;;;9.90;99.90;;;;;;4974839;28;20061;-81
2022/12/29 02:39:20;;;;;;;6.22;3.70;;;9.90;99.90;;;;;;4990456;28;20061;-88
2022/12/29 02:42:23;;;;;;;6.25;4.10;;;9.90;99.90;;;;;;4982307;28;20130;-86
2022/12/29 02:45:10;;;;;;;7.32;4.57;;;9.90;99.90;;;;;;4962213;28;20057;-85
2022/12/29 02:47:58;;;;;;;6.13;4.20;;;9.90;99.90;;;;;;4988775;28;20105;-83
2022/12/29 02:50:31;;;;;;;6.97;4.25;;;9.90;99.90;;;;;;4989494;28;20050;-81
2022/12/29 02:53:04;;;;;;;6.82;4.07;;;9.80;99.90;;;;;;4973408;28;20484;-82
2022/12/29 02:55:30;;;;;;;6.07;4.35;;;9.90;99.90;;;;;;4966002;28;20132;-82
2022/12/29 02:58:18;;;;;;;4.63;4.00;;;9.90;99.90;;;;;;4987037;28;20078;-82
2022/12/29 03:01:22;;;;;;;4.80;4.03;;;9.90;99.90;;;;;;4967645;28;20054;-82
2022/12/29 03:03:48;;;;;;;4.35;3.30;;;9.90;99.90;;;;;;4988703;28;20052;-81
2022/12/29 03:06:34;;;;;;;3.80;2.95;;;9.80;99.90;;;;;;4970541;28;20055;-83
2022/12/29 03:09:18;;;;;;;3.30;3.00;;;9.90;99.90;;;;;;4949451;28;20057;-81
2022/12/29 03:12:09;;;;;;;3.60;2.85;;;9.90;99.90;;;;;;4960645;28;20741;-81
2022/12/29 03:17:46;;;;;;;4.22;2.92;;;9.90;99.90;;;;;;4988417;28;20625;-84
2022/12/29 03:20:18;;;;;;;4.28;2.60;;;9.90;99.90;;;;;;4990941;28;20137;-82
2022/12/29 03:22:49;;;;;;;3.40;2.78;;;9.90;99.90;;;;;;4982410;28;20499;-86
2022/12/29 03:25:28;;;;;;;5.38;2.78;;;9.90;99.90;;;;;;4986577;28;20077;-82
2022/12/29 03:28:00;;;;;;;3.83;2.97;;;9.80;99.90;;;;;;4986929;28;20077;-86
2022/12/29 03:30:29;;;;;;;3.63;2.40;;;9.90;99.90;;;;;;4988099;28;20054;-82
2022/12/29 03:32:59;;;;;;;3.58;2.10;;;9.90;99.90;;;;;;4978340;28;20056;-86
2022/12/29 03:35:29;;;;;;;2.47;2.28;;;9.90;99.90;;;;;;4978096;28;20054;-81
2022/12/29 03:37:58;;;;;;;3.95;2.25;;;9.80;99.90;;;;;;4990691;28;20096;-85
2022/12/29 03:40:25;;;;;;;3.05;2.20;;;9.70;99.90;;;;;;4979776;28;20062;-81
2022/12/29 03:42:53;;;;;;;5.93;2.30;;;9.70;99.90;;;;;;4983242;28;20051;-82
2022/12/29 03:45:19;;;;;;;3.85;2.30;;;9.60;99.90;;;;;;4970909;28;20086;-81
2022/12/29 03:47:45;;;;;;;3.35;2.28;;;9.60;99.90;;;;;;4989133;28;20052;-82
2022/12/29 03:50:14;;;;;;;3.97;2.40;;;9.60;99.90;;;;;;4990486;28;20121;-82
2022/12/29 03:52:40;;;;;;;4.32;2.47;;;9.60;99.90;;;;;;4976460;28;20496;-84
2022/12/29 03:55:06;;;;;;;7.60;2.50;;;9.60;99.90;;;;;;4988430;28;20046;-82
2022/12/29 03:57:31;;;;;;;3.33;1.92;;;9.70;99.90;;;;;;4958336;28;20078;-81
2022/12/29 03:59:57;;;;;;;3.55;2.20;;;9.60;99.90;;;;;;4960832;28;20073;-82
2022/12/29 04:02:23;;;;;;;3.40;2.45;;;9.60;99.90;;;;;;4961477;28;20054;-81
2022/12/29 04:04:49;;;;;;;5.65;2.05;;;9.60;99.90;;;;;;4988492;28;20129;-81
2022/12/29 04:07:15;;;;;;;4.80;2.10;;;9.70;99.90;;;;;;4952557;28;20050;-80
2022/12/29 04:09:41;;;;;;;6.72;2.90;;;9.70;99.90;;;;;;4970402;28;20038;-81
2022/12/29 04:12:06;;;;;;;6.60;2.53;;;9.60;99.90;;;;;;4975052;28;20045;-80
2022/12/29 04:14:32;;;;;;;4.35;2.38;;;9.60;99.90;;;;;;4938138;28;20056;-81
2022/12/29 04:16:57;;;;;;;4.88;2.00;;;9.60;99.90;;;;;;4977619;28;20558;-81
2022/12/29 04:19:23;;;;;;;7.32;1.75;;;9.50;99.90;;;;;;4960370;28;20051;-81
2022/12/29 04:21:49;;;;;;;5.53;2.08;;;9.50;99.90;;;;;;4974715;28;20125;-82
2022/12/29 04:24:15;;;;;;;6.32;1.83;;;9.50;99.90;;;;;;4969422;28;20058;-81
2022/12/29 04:26:41;;;;;;;4.55;1.40;;;9.40;99.90;;;;;;4961037;28;20043;-82
2022/12/29 04:29:07;;;;;;;3.00;0.90;;;9.40;99.90;;;;;;4989724;28;20046;-82
2022/12/29 04:31:32;;;;;;;5.95;1.10;;;9.30;99.90;;;;;;4967543;28;20055;-82
2022/12/29 04:33:59;;;;;;;6.85;1.33;;;9.30;99.90;;;;;;4959614;28;20093;-81
2022/12/29 04:36:25;;;;;;;3.38;1.10;;;9.30;99.90;;;;;;4963605;28;20050;-83
2022/12/29 04:38:51;;;;;;;2.42;1.35;;;9.20;99.90;;;;;;4959946;28;20097;-82
2022/12/29 04:41:16;;;;;;;3.83;1.63;;;9.10;99.90;;;;;;4960663;28;20053;-81
2022/12/29 04:43:42;;;;;;;3.22;1.20;;;9.10;99.90;;;;;;4989479;28;20050;-81
2022/12/29 04:46:10;;;;;;;2.58;1.10;;;9.00;99.90;;;;;;4965455;28;20043;-82
2022/12/29 04:48:36;;;;;;;4.15;1.33;;;8.90;99.90;;;;;;4963810;28;20090;-86
2022/12/29 04:51:02;;;;;;;2.33;1.10;;;8.90;99.90;;;;;;4974150;28;20079;-81
2022/12/29 04:53:27;;;;;;;3.75;1.35;;;8.90;99.90;;;;;;4968444;28;20050;-81
2022/12/29 04:55:53;;;;;;;5.60;1.35;;;8.90;99.90;;;;;;4971080;28;20069;-81
2022/12/29 04:58:20;;;;;;;6.25;2.05;;;8.90;99.90;;;;;;4975164;28;20049;-81
2022/12/29 05:00:45;;;;;;;4.25;1.90;;;8.90;99.90;;;;;;4974388;28;20189;-81
2022/12/29 05:03:11;;;;;;;8.25;1.83;;;8.80;99.90;;;;;;4974256;28;20126;-82
2022/12/29 05:05:37;;;;;;;6.40;1.65;;;8.80;99.90;;;;;;4975301;28;20049;-81
2022/12/29 05:08:03;;;;;;;8.50;1.58;;;8.80;99.90;;;;;;4975291;28;20427;-81
2022/12/29 05:10:29;;;;;;;8.18;1.88;;;8.80;99.90;;;;;;4976686;28;20130;-82
2022/12/29 05:12:55;;;;;;;4.93;1.90;;;8.80;99.90;;;;;;4957746;28;20042;-82
2022/12/29 05:15:21;;;;;;;5.25;1.50;;;8.80;99.90;;;;;;4975891;28;20053;-82
2022/12/29 05:17:46;;;;;;;10.73;1.90;;;8.70;99.90;;;;;;4973503;28;20058;-81
2022/12/29 05:20:12;;;;;;;10.68;1.60;;;8.70;99.90;;;;;;4960543;28;20038;-85
2022/12/29 05:22:38;;;;;;;8.10;1.40;;;8.70;99.90;;;;;;4979034;28;20050;-81
2022/12/29 05:25:03;;;;;;;8.85;1.60;;;8.70;99.90;;;;;;4992227;28;20054;-81
2022/12/29 05:27:29;;;;;;;6.30;1.50;;;8.70;99.90;;;;;;4975469;28;20407;-82
2022/12/29 05:29:55;;;;;;;10.52;2.13;;;8.70;99.90;;;;;;4982436;28;20121;-82
2022/12/29 05:32:20;;;;;;;6.88;1.50;;;8.70;99.90;;;;;;4969694;28;20039;-82
2022/12/29 05:34:46;;;;;;;11.23;2.13;;;8.60;99.90;;;;;;4987523;28;20046;-84
2022/12/29 05:37:12;;;;;;;9.90;2.20;;;8.70;99.90;;;;;;4972783;28;20047;-82
2022/12/29 05:39:37;;;;;;;8.50;1.67;;;8.70;99.90;;;;;;4974935;28;20050;-82
2022/12/29 05:42:03;;;;;;;7.68;1.92;;;8.60;99.90;;;;;;4947201;28;20558;-82
2022/12/29 05:44:29;;;;;;;6.22;1.98;;;8.60;99.90;;;;;;4950306;28;20082;-81
2022/12/29 05:46:54;;;;;;;7.03;2.25;;;8.50;99.90;;;;;;4974991;28;20440;-82
2022/12/29 05:49:20;;;;;;;9.63;1.63;;;8.50;99.90;;;;;;4956371;28;20046;-82
2022/12/29 05:51:46;;;;;;;8.25;1.25;;;8.50;99.90;;;;;;4959136;28;20125;-82
2022/12/29 05:54:11;;;;;;;9.82;1.75;;;8.50;99.90;;;;;;4975393;28;20707;-81
2022/12/29 05:56:37;;;;;;;10.65;1.38;;;8.50;99.90;;;;;;4925942;28;20050;-81
2022/12/29 05:59:03;;;;;;;7.72;1.30;;;8.50;99.90;;;;;;4991410;28;21034;-81
2022/12/29 06:01:28;;;;;;;8.32;1.75;;;8.50;99.90;;;;;;4942803;28;20122;-81
2022/12/29 06:03:54;;;;;;;7.18;1.48;;;8.60;99.90;;;;;;4972490;28;20046;-82
2022/12/29 06:06:20;;;;;;;4.53;1.25;;;8.60;99.90;;;;;;4941184;28;20186;-83
2022/12/29 06:08:46;;;;;;;7.20;1.23;;;8.70;99.90;;;;;;4973443;28;20488;-82
2022/12/29 06:11:11;;;;;;;9.40;1.77;;;8.60;99.90;;;;;;4940686;28;20391;-83
2022/12/29 06:13:37;;;;;;;9.48;1.50;;;8.70;99.90;;;;;;4953835;28;20767;-83
2022/12/29 06:16:03;;;;;;;13.18;1.63;;;8.60;99.90;;;;;;4970161;28;20113;-82
2022/12/29 06:18:29;;;;;;;7.25;1.27;;;8.60;99.90;;;;;;4958555;28;20046;-82
2022/12/29 06:20:58;;;;;;;8.05;1.30;;;8.60;99.90;;;;;;4955813;28;20050;-84
2022/12/29 06:23:27;;;;;;;8.13;2.03;;;8.60;99.90;;;;;;4968760;28;20196;-82
2022/12/29 06:25:53;;;;;;;10.23;1.60;;;8.70;99.90;;;;;;4958988;28;20397;-83
2022/12/29 06:28:18;;;;;;;7.57;1.60;;;8.70;99.90;;;;;;4918735;28;20043;-81
2022/12/29 06:30:45;;;;;;;8.30;1.52;;;8.60;99.90;;;;;;4973422;28;20053;-82
2022/12/29 06:33:11;;;;;;;10.18;1.65;;;8.60;99.90;;;;;;4955699;28;20050;-83
2022/12/29 06:35:40;;;;;;;11.88;1.40;;;8.60;99.90;;;;;;4973303;28;20086;-84
2022/12/29 06:38:06;;;;;;;8.20;1.83;;;8.60;99.90;;;;;;4973931;28;20502;-83
2022/12/29 06:40:31;;;;;;;10.05;1.88;;;8.60;99.90;;;;;;4970075;28;20059;-82
2022/12/29 06:42:57;;;;;;;13.85;1.80;;;8.60;99.90;;;;;;4958848;28;20061;-81
2022/12/29 06:45:23;;;;;;;10.55;1.65;;;8.70;99.90;;;;;;4938014;28;20062;-86
2022/12/29 06:47:51;;;;;;;5.80;1.20;;;8.70;99.90;;;;;;4936173;28;20054;-83
2022/12/29 06:50:17;;;;;;;8.15;1.70;;;8.70;99.90;;;;;;4955657;28;20038;-83
2022/12/29 06:52:43;;;;;;;10.00;1.85;;;8.80;99.90;;;;;;4957068;28;20050;-83
2022/12/29 06:55:08;;;;;;;11.45;2.00;;;8.70;99.90;;;;;;4954506;28;20129;-83
2022/12/29 06:57:34;;;;;;;10.45;1.50;;;8.80;99.90;;;;;;4969656;28;20054;-84
2022/12/29 07:00:00;;;;;;;9.77;2.42;;;8.70;99.90;;;;;;4955775;28;20046;-84
2022/12/29 07:02:26;;;;;;;9.98;1.83;;;8.70;99.90;;;;;;4951205;28;20487;-88
2022/12/29 07:04:55;;;;;;;7.95;1.55;;;8.70;99.90;;;;;;4968615;28;20492;-84
2022/12/29 07:07:21;;;;;;;8.85;1.58;;;8.70;99.90;;;;;;4954893;28;20560;-83
2022/12/29 07:09:47;;;;;;;9.50;1.58;;;8.80;99.90;;;;;;4957910;28;20035;-84
2022/12/29 07:12:12;;;;;;;8.75;1.65;;;8.80;99.90;;;;;;4974416;28;20054;-82
2022/12/29 07:14:39;;;;;;;8.40;1.40;;;8.70;99.90;;;;;;4958504;28;20046;-83
2022/12/29 07:17:11;;;;;;;8.73;1.65;;;8.70;99.90;;;;;;4984059;28;20138;-88
2022/12/29 07:19:36;;;;;;;8.40;1.50;;;8.80;99.90;;;;;;4988357;28;20047;-84
2022/12/29 07:22:02;;;;;;;9.98;2.15;;;8.80;99.90;;;;;;4971076;28;20489;-85
2022/12/29 07:24:30;;;;;;;10.40;2.55;;;8.80;99.90;;;;;;4971487;28;20042;-86
2022/12/29 07:26:56;;;;;;;7.35;1.80;;;8.90;99.90;;;;;;4973798;28;20133;-84
2022/12/29 07:29:22;;;;;;;10.38;1.85;;;8.90;99.90;;;;;;4953837;28;20134;-83
2022/12/29 07:31:48;;;;;;;12.43;2.67;;;8.90;99.90;;;;;;4966338;28;20049;-84
2022/12/29 07:34:13;;;;;;;9.35;1.48;;;8.90;99.90;;;;;;4953749;28;20164;-83
2022/12/29 07:36:39;;;;;;;15.13;2.30;;;9.00;99.90;;;;;;4989530;28;20050;-83
2022/12/29 07:39:05;;;;;;;13.80;2.08;;;9.00;99.90;;;;;;4957355;28;20113;-83
2022/12/29 07:41:36;;;;;;;11.43;2.40;;;9.10;99.90;;;;;;4985036;28;20182;-90
2022/12/29 07:44:04;;;;;;;6.65;2.13;;;9.10;99.90;;;;;;4966216;28;20054;-83
2022/12/29 07:46:30;;;;;;;12.45;2.20;;;9.20;99.90;;;;;;4956698;28;20044;-79
2022/12/29 07:48:56;;;;;;;11.55;1.85;;;9.20;99.90;;;;;;4986700;28;20391;-84
2022/12/29 07:51:21;;;;;;;7.93;1.67;;;9.10;99.90;;;;;;4968850;28;20047;-84
2022/12/29 07:53:47;;;;;;;10.32;1.75;;;9.10;99.90;;;;;;4988622;28;20093;-84
2022/12/29 07:56:13;;;;;;;10.93;2.40;;;9.10;99.90;;;;;;4933077;28;20051;-83
2022/12/29 07:58:39;;;;;;;9.73;1.83;;;9.00;99.90;;;;;;4954668;28;20050;-86
2022/12/29 08:01:05;;;;;;;12.77;1.80;;;9.00;99.90;;;;;;4972474;28;20129;-82
2022/12/29 08:03:31;;;;;;;11.60;2.03;;;8.90;99.90;;;;;;4951345;28;20449;-82
2022/12/29 08:05:56;;;;;;;14.38;2.33;;;8.90;99.90;;;;;;4975927;28;20072;-81
2022/12/29 08:08:22;;;;;;;11.13;2.58;;;8.90;99.90;;;;;;4969305;28;20055;-83
2022/12/29 08:10:48;;;;;;;13.68;2.15;;;8.90;99.90;;;;;;4974001;28;20046;-82
2022/12/29 08:13:14;;;;;;;11.18;2.42;;;8.90;99.90;;;;;;4970956;28;20097;-81
2022/12/29 08:15:39;;;;;;;12.20;2.13;;;9.00;99.90;;;;;;4984470;28;20054;-83
2022/12/29 08:18:06;;;;;;;13.23;1.92;;;9.00;99.90;;;;;;4950933;28;20058;-82
2022/12/29 08:20:32;;;;;;;8.80;1.83;;;9.00;99.90;;;;;;4989749;28;20113;-81
2022/12/29 08:22:57;;;;;;;11.45;1.95;;;8.90;99.90;;;;;;4984913;28;20592;-82
2022/12/29 08:25:23;;;;;;;17.98;2.72;;;8.80;99.90;;;;;;4989099;28;20181;-81
2022/12/29 08:27:49;;;;;;;15.30;2.25;;;8.90;99.90;;;;;;4960186;28;20053;-85
2022/12/29 08:30:15;;;;;;;15.20;2.90;;;9.00;99.90;;;;;;4991393;28;20057;-83
2022/12/29 08:32:40;;;;;;;11.20;2.30;;;9.10;99.90;;;;;;4987161;28;20042;-89
2022/12/29 08:35:06;;;;;;;14.55;2.17;;;9.10;99.90;;;;;;4973504;28;20050;-81
2022/12/29 08:37:33;;;;;;;15.27;2.53;;;9.10;99.90;;;;;;4973891;28;20053;-81
2022/12/29 08:40:03;;;;;;;18.35;2.90;;;9.20;99.90;;;;;;4974266;28;20054;-81
2022/12/29 08:42:32;;;;;;;15.40;3.08;;;9.20;99.90;;;;;;4946391;28;20058;-81
2022/12/29 08:44:58;;;;;;;16.10;2.22;;;9.20;99.90;;;;;;4987352;28;20431;-81
2022/12/29 08:47:25;;;;;;;17.35;2.35;;;9.20;99.90;;;;;;4956937;28;20094;-81
2022/12/29 08:49:51;;;;;;;13.75;3.20;;;9.20;99.90;;;;;;4959959;28;20092;-82
2022/12/29 08:52:18;;;;;;;14.45;2.15;;;9.30;99.90;;;;;;4968891;28;20055;-82
2022/12/29 08:54:43;;;;;;;17.83;2.28;;;9.30;99.90;;;;;;4970643;28;20054;-87
2022/12/29 08:57:09;;;;;;;15.10;2.17;;;9.40;99.90;;;;;;4976627;28;20038;-82
2022/12/29 08:59:35;;;;;;;14.60;2.63;;;9.40;99.90;;;;;;4953523;28;21218;-81
2022/12/29 09:02:01;;;;;;;17.88;2.53;;;9.40;99.90;;;;;;4963282;28;20046;-82
2022/12/29 09:04:27;;;;;;;19.73;3.15;;;9.40;99.90;;;;;;4987773;28;20057;-81
2022/12/29 09:06:53;;;;;;;11.00;1.98;;;9.50;99.90;;;;;;4952388;28;20408;-82
2022/12/29 09:09:19;;;;;;;16.73;2.40;;;9.40;99.90;;;;;;4972612;28;20042;-82
2022/12/29 09:11:45;;;;;;;10.32;1.95;;;9.30;51.50;;;;;;4976488;28;20054;-88
2022/12/29 09:14:12;;;;;;;13.05;2.88;;;9.20;79.50;;;;;;4971124;28;20053;-88
2022/12/29 09:16:37;;;;;;;10.93;2.17;;;9.00;95.60;;;;;;4978101;28;20051;-81
2022/12/29 09:19:03;;;;;;;13.15;1.95;;;8.90;99.90;;;;;;4962068;28;20050;-81
2022/12/29 09:21:29;;;;;;;10.85;1.90;;;8.80;77.00;;;;;;4978373;28;20042;-81
2022/12/29 09:23:55;;;;;;;19.13;2.45;;;8.70;99.90;;;;;;4997282;28;20409;-80
2022/12/29 09:26:21;;;;;;;9.35;2.10;;;8.60;99.90;;;;;;4943310;28;20051;-81
2022/12/29 09:28:47;;;;;;;15.90;2.97;;;8.60;99.90;;;;;;4972768;28;20489;-82
2022/12/29 09:34:37;;;;;;;11.32;1.88;;;8.50;99.90;;;;;;4991684;28;20057;-81
2022/12/29 09:37:02;;;;;;;15.05;2.15;;;8.50;99.90;;;;;;4977965;28;20635;-83
2022/12/29 09:39:28;;;;;;;13.50;2.08;;;8.50;99.90;;;;;;4983694;28;20063;-82
2022/12/29 09:42:21;;;;;;;12.93;1.95;;;8.50;99.90;;;;;;4970189;28;20054;-85
2022/12/29 09:44:55;;;;;;;8.63;2.15;;;8.60;99.90;;;;;;4960700;28;20058;-85
2022/12/29 09:47:23;;;;;;;14.85;3.35;;;8.60;99.90;;;;;;4984989;28;20049;-82
2022/12/29 09:50:02;;;;;;;20.05;2.72;;;8.70;99.90;;;;;;4989523;28;20046;-90
2022/12/29 09:52:46;;;;;;;13.45;2.33;;;8.80;99.90;;;;;;4989533;28;20105;-81
2022/12/29 09:55:20;;;;;;;9.88;2.28;;;8.80;99.90;;;;;;4982217;28;20065;-87
2022/12/29 09:58:15;;;;;;;11.85;2.85;;;8.90;99.90;;;;;;4988574;28;20053;-82
2022/12/29 10:00:53;;;;;;;14.02;2.90;;;8.90;96.80;;;;;;4966983;28;20121;-83
2022/12/29 10:03:24;;;;;;;9.35;1.92;;;9.00;99.50;;;;;;4983263;28;20043;-80
2022/12/29 10:06:03;;;;;;;15.25;3.25;;;9.00;99.90;;;;;;4991281;28;20050;-86
2022/12/29 10:08:59;;;;;;;12.88;2.00;;;8.90;99.90;;;;;;5001800;28;20042;-82
2022/12/29 10:12:03;;;;;;;15.95;2.63;;;8.80;99.90;;;;;;4965192;28;20389;-82
2022/12/29 10:14:54;;;;;;;14.82;2.45;;;8.70;99.90;;;;;;4935735;28;20065;-82
2022/12/29 10:17:38;;;;;;;16.40;2.92;;;8.70;99.90;;;;;;4986471;28;20054;-83
2022/12/29 10:20:24;;;;;;;18.48;3.08;;;8.70;99.90;;;;;;4988973;28;20050;-82
2022/12/29 10:22:50;;;;;;;;;;;8.60;99.90;;;;;;4973246;28;20517;-82
2022/12/29 10:25:19;;;;;;;15.77;2.77;;;8.50;99.90;;;;;;4957425;28;19934;-83
2022/12/29 10:27:49;;;;;;;17.38;2.90;;;8.50;99.90;;;;;;4959898;28;20046;-83
2022/12/29 10:30:15;;;;;;;16.00;3.00;;;8.50;99.90;;;;;;4973254;28;20388;-81
2022/12/29 10:32:45;;;;;;;19.13;3.03;;;8.40;99.90;;;;;;4973838;28;20046;-82
2022/12/29 10:35:11;;;;;;;13.00;2.72;;;8.30;99.90;;;;;;4971070;28;20100;-84
2022/12/29 10:37:43;;;;;;;21.42;3.03;;;8.30;99.90;;;;;;4975101;28;20486;-81
2022/12/29 10:43:41;;;;;;;21.02;3.47;;;8.30;99.90;;;;;;4993196;28;20046;-81
2022/12/29 10:46:32;;;;;;;10.43;2.10;;;8.30;99.90;;;;;;4985700;28;20492;-81
2022/12/29 10:48:58;;;;;;;16.25;3.45;;;8.30;99.90;;;;;;4975945;28;20096;-83
2022/12/29 10:51:28;;;;;;;14.20;2.50;;;8.30;99.90;;;;;;4972678;28;20053;-81
2022/12/29 10:54:02;;;;;;;12.82;2.72;;;8.30;99.90;;;;;;4979808;28;20831;-82
2022/12/29 10:56:37;;;;;;;21.25;3.25;;;8.30;99.90;;;;;;4970545;28;20047;-82
2022/12/29 10:59:15;;;;;;;13.85;3.22;;;8.30;99.90;;;;;;4969640;28;20116;-82
2022/12/29 11:02:06;;;;;;;18.33;3.17;;;8.30;99.90;;;;;;4986263;28;21526;-84
2022/12/29 11:04:47;;;;;;;20.65;2.80;;;8.30;99.90;;;;;;4966665;28;20404;-80
2022/12/29 11:07:16;;;;;;;15.82;3.33;;;8.30;99.90;;;;;;4991533;28;20050;-80
2022/12/29 11:09:44;;;;;;;15.80;4.05;;;8.30;99.90;;;;;;4991955;28;20042;-81
2022/12/29 11:12:30;;;;;;;13.77;2.83;;;8.30;99.90;;;;;;4972420;28;20065;-80
2022/12/29 11:15:22;;;;;;;13.00;2.08;;;8.30;99.90;;;;;;4975090;28;20053;-82
2022/12/29 11:17:59;;;;;;;5.22;1.70;;;8.30;99.90;;;;;;4991612;28;20094;-81
2022/12/29 11:20:33;;;;;;;11.15;2.60;;;8.30;99.90;;;;;;4955538;28;20138;-82
2022/12/29 11:23:00;;;;;;;14.45;2.60;;;8.30;99.90;;;;;;4975102;28;20046;-80
2022/12/29 11:25:26;;;;;;;15.27;3.63;;;8.20;99.90;;;;;;4974596;28;20063;-81
2022/12/29 11:27:56;;;;;;;15.07;2.35;;;8.30;99.90;;;;;;4985786;28;20107;-81
2022/12/29 11:30:25;;;;;;;11.63;2.35;;;8.30;99.90;;;;;;4985897;28;20176;-81
2022/12/29 11:32:53;;;;;;;9.90;2.33;;;8.30;99.90;;;;;;4992662;28;20065;-80
2022/12/29 11:35:43;;;;;;;11.05;2.90;;;8.20;99.90;;;;;;4974032;28;20484;-81
2022/12/29 11:39:02;;;;;;;17.25;2.25;;;8.20;99.90;;;;;;4952318;28;20050;-80
2022/12/29 11:41:28;;;;;;;;;;;8.20;99.90;;;;;;4983870;28;20100;-81
2022/12/29 11:43:58;;;;;;;10.48;2.10;;;8.30;99.90;;;;;;4995423;28;19925;-83
2022/12/29 11:46:36;;;;;;;16.92;4.10;;;8.20;99.90;;;;;;4963174;28;20069;-85
2022/12/29 11:49:04;;;;;;;16.08;3.45;;;8.20;99.90;;;;;;4991134;28;20063;-85
2022/12/29 11:51:46;;;;;;;17.73;3.78;;;8.20;99.90;;;;;;4980522;28;20045;-81
2022/12/29 11:54:32;;;;;;;20.10;4.03;;;8.50;99.90;;;;;;4999199;28;20077;-80
2022/12/29 11:57:08;;;;;;;26.98;5.38;;;8.60;99.90;;;;;;4994474;28;20034;-80
2022/12/29 11:59:41;;;;;;;18.05;3.58;;;8.50;99.90;;;;;;4990488;28;20053;-82
2022/12/29 12:02:24;;;;;;;23.77;4.00;;;8.70;99.90;;;;;;4992994;28;20128;-87
2022/12/29 12:05:00;;;;;;;27.15;4.63;;;8.80;99.90;;;;;;4976926;28;20057;-81
2022/12/29 12:07:49;;;;;;;32.72;5.07;;;8.70;99.90;;;;;;4977113;28;20049;-84
2022/12/29 12:10:33;;;;;;;28.50;4.43;;;8.70;99.90;;;;;;4976754;28;20049;-81
2022/12/29 12:13:28;;;;;;;27.15;4.32;;;8.80;99.90;;;;;;4993915;28;20050;-80
2022/12/29 12:16:12;;;;;;;31.02;4.60;;;8.80;99.90;;;;;;4987090;28;20054;-82
2022/12/29 12:18:50;;;;;;;22.95;3.88;;;8.70;99.90;;;;;;4990464;28;20504;-81
2022/12/29 12:21:20;;;;;;;27.70;4.72;;;8.80;99.90;;;;;;4976304;28;20128;-81
2022/12/29 12:24:18;;;;;;;19.85;3.83;;;8.90;99.90;;;;;;4989201;28;20050;-82
2022/12/29 12:26:46;;;;;;;29.65;5.72;;;8.90;99.90;;;;;;4947635;28;20491;-81
2022/12/29 12:29:20;;;;;;;20.63;4.10;;;8.80;99.90;;;;;;4970306;28;20173;-81
2022/12/29 12:31:54;;;;;;;25.42;3.75;;;8.70;99.90;;;;;;4989227;28;20046;-84
2022/12/29 12:34:35;;;;;;;31.92;4.55;;;8.70;99.90;;;;;;4982899;28;20052;-82
2022/12/29 12:37:22;;;;;;;17.83;3.22;;;8.70;99.90;;;;;;4977399;28;20140;-81
2022/12/29 12:40:12;;;;;;;23.05;3.92;;;8.80;99.90;;;;;;4991485;28;20073;-82
2022/12/29 12:43:16;;;;;;;22.63;3.20;;;8.90;99.90;;;;;;4981141;28;20054;-85
2022/12/29 12:46:24;;;;;;;20.40;3.60;;;8.90;99.90;;;;;;4979585;28;20088;-80
2022/12/29 12:49:22;;;;;;;23.85;3.08;;;8.80;99.90;;;;;;4992704;28;20049;-79
2022/12/29 12:52:00;;;;;;;17.58;2.65;;;8.70;99.90;;;;;;5000426;28;20466;-81
2022/12/29 12:54:40;;;;;;;14.90;2.58;;;8.70;99.90;;;;;;4972840;28;20042;-82
2022/12/29 12:57:21;;;;;;;29.90;4.30;;;8.70;99.90;;;;;;4982174;28;20569;-81
2022/12/29 13:00:05;;;;;;;20.95;2.47;;;8.60;99.90;;;;;;4976529;28;20124;-82
2022/12/29 13:02:55;;;;;;;26.42;4.75;;;8.60;99.90;;;;;;4988308;28;20057;-80
2022/12/29 13:05:51;;;;;;;24.80;3.38;;;8.60;99.90;;;;;;4981283;28;20042;-81
2022/12/29 13:08:31;;;;;;;23.75;3.00;;;8.60;99.90;;;;;;4984192;28;20049;-86
2022/12/29 13:11:24;;;;;;;21.00;2.90;;;8.70;99.90;;;;;;4973212;28;20049;-80
2022/12/29 13:14:17;;;;;;;21.08;3.42;;;8.70;99.90;;;;;;4969514;28;20053;-82
2022/12/29 13:17:09;;;;;;;18.98;5.28;;;8.60;99.90;;;;;;4975900;28;20054;-83
2022/12/29 13:19:49;;;;;;;27.50;4.60;;;8.60;99.90;;;;;;4991524;28;20069;-83
2022/12/29 13:22:28;;;;;;;22.77;3.55;;;8.50;99.90;;;;;;4992493;28;20054;-83
2022/12/29 13:25:19;;;;;;;23.25;3.40;;;8.50;99.90;;;;;;4978104;28;20129;-81
2022/12/29 13:28:10;;;;;;;18.75;4.43;;;8.50;99.90;;;;;;4973722;28;20050;-82
2022/12/29 13:31:05;;;;;;;37.60;18.63;;;8.60;99.90;;;;;;4971664;28;20038;-82
2022/12/29 13:33:43;;;;;;;24.63;10.38;;;8.50;99.90;;;;;;4972669;28;20042;-83
2022/12/29 13:36:18;;;;;;;26.73;5.85;;;8.50;99.90;;;;;;4974255;28;20191;-84
2022/12/29 13:38:49;;;;;;;27.95;11.57;;;8.50;99.90;;;;;;4988539;28;20069;-83
2022/12/29 13:41:23;;;;;;;33.97;17.33;;;8.50;99.90;;;;;;4991155;28;20085;-83
2022/12/29 13:43:50;;;;;;;32.42;17.27;;;8.60;99.90;;;;;;4989888;28;20100;-82
2022/12/29 13:46:33;;;;;;;18.33;4.90;;;8.60;99.90;;;;;;4956941;28;20057;-82
2022/12/29 13:49:20;;;;;;;18.77;5.32;;;8.60;99.90;;;;;;4984570;28;20042;-82
2022/12/29 13:52:08;;;;;;;19.38;4.80;;;8.60;99.90;;;;;;4976435;28;20100;-82